sensor_id;sensor_type;location;lat;lon;timestamp;P1;durP1;ratioP1;P2;durP2;ratioP2
65033;SDS011;51601;51.356;12.458;2023-03-05T00:02:14;10.63;;;1.63;;
65033;SDS011;51601;51.356;12.458;2023-03-05T00:06:39;8.48;;;1.58;;
65033;SDS011;51601;51.356;12.458;2023-03-05T00:11:05;6.05;;;1.67;;
65033;SDS011;51601;51.356;12.458;2023-03-05T00:15:31;10.70;;;2.15;;
65033;SDS011;51601;51.356;12.458;2023-03-05T00:19:55;9.80;;;1.70;;
65033;SDS011;51601;51.356;12.458;2023-03-05T00:24:23;10.10;;;2.05;;
65033;SDS011;51601;51.356;12.458;2023-03-05T00:28:48;8.88;;;1.90;;
65033;SDS011;51601;51.356;12.458;2023-03-05T00:33:13;9.80;;;1.90;;
65033;SDS011;51601;51.356;12.458;2023-03-05T00:37:37;8.40;;;1.38;;
65033;SDS011;51601;51.356;12.458;2023-03-05T00:42:01;9.13;;;1.48;;
65033;SDS011;51601;51.356;12.458;2023-03-05T00:46:27;9.47;;;1.53;;
65033;SDS011;51601;51.356;12.458;2023-03-05T00:50:51;8.30;;;1.73;;
65033;SDS011;51601;51.356;12.458;2023-03-05T00:55:15;6.78;;;1.40;;
65033;SDS011;51601;51.356;12.458;2023-03-05T00:59:40;7.10;;;1.40;;
65033;SDS011;51601;51.356;12.458;2023-03-05T01:04:06;7.40;;;1.43;;
65033;SDS011;51601;51.356;12.458;2023-03-05T01:08:30;9.27;;;1.30;;
65033;SDS011;51601;51.356;12.458;2023-03-05T01:12:54;5.57;;;1.20;;
65033;SDS011;51601;51.356;12.458;2023-03-05T01:17:19;4.27;;;1.10;;
65033;SDS011;51601;51.356;12.458;2023-03-05T01:21:45;6.55;;;1.20;;
65033;SDS011;51601;51.356;12.458;2023-03-05T01:26:10;7.22;;;1.17;;
65033;SDS011;51601;51.356;12.458;2023-03-05T01:30:36;6.97;;;1.03;;
65033;SDS011;51601;51.356;12.458;2023-03-05T01:35:01;6.95;;;1.52;;
65033;SDS011;51601;51.356;12.458;2023-03-05T01:39:29;3.08;;;0.80;;
65033;SDS011;51601;51.356;12.458;2023-03-05T01:43:53;5.32;;;1.52;;
65033;SDS011;51601;51.356;12.458;2023-03-05T01:48:17;7.07;;;1.20;;
65033;SDS011;51601;51.356;12.458;2023-03-05T01:52:42;5.45;;;1.00;;
65033;SDS011;51601;51.356;12.458;2023-03-05T01:57:11;7.60;;;1.20;;
65033;SDS011;51601;51.356;12.458;2023-03-05T02:01:38;3.33;;;0.90;;
65033;SDS011;51601;51.356;12.458;2023-03-05T02:06:06;7.05;;;1.27;;
65033;SDS011;51601;51.356;12.458;2023-03-05T02:10:31;6.47;;;1.40;;
65033;SDS011;51601;51.356;12.458;2023-03-05T02:15:00;4.27;;;1.37;;
65033;SDS011;51601;51.356;12.458;2023-03-05T02:19:24;4.25;;;1.20;;
65033;SDS011;51601;51.356;12.458;2023-03-05T02:23:50;4.82;;;1.02;;
65033;SDS011;51601;51.356;12.458;2023-03-05T02:28:16;5.25;;;1.17;;
65033;SDS011;51601;51.356;12.458;2023-03-05T02:32:42;7.17;;;1.20;;
65033;SDS011;51601;51.356;12.458;2023-03-05T02:37:06;8.30;;;1.95;;
65033;SDS011;51601;51.356;12.458;2023-03-05T02:41:33;4.18;;;1.15;;
65033;SDS011;51601;51.356;12.458;2023-03-05T02:45:58;5.00;;;1.20;;
65033;SDS011;51601;51.356;12.458;2023-03-05T02:50:27;3.22;;;0.90;;
65033;SDS011;51601;51.356;12.458;2023-03-05T02:54:51;4.55;;;1.42;;
65033;SDS011;51601;51.356;12.458;2023-03-05T02:59:19;3.67;;;1.10;;
65033;SDS011;51601;51.356;12.458;2023-03-05T03:03:43;9.00;;;1.33;;
65033;SDS011;51601;51.356;12.458;2023-03-05T03:08:07;6.38;;;1.30;;
65033;SDS011;51601;51.356;12.458;2023-03-05T03:12:35;7.30;;;1.48;;
65033;SDS011;51601;51.356;12.458;2023-03-05T03:16:55;6.57;;;1.43;;
65033;SDS011;51601;51.356;12.458;2023-03-05T03:21:21;4.70;;;1.17;;
65033;SDS011;51601;51.356;12.458;2023-03-05T03:25:46;8.82;;;1.75;;
65033;SDS011;51601;51.356;12.458;2023-03-05T03:30:11;7.23;;;1.57;;
65033;SDS011;51601;51.356;12.458;2023-03-05T03:34:37;4.63;;;1.25;;
65033;SDS011;51601;51.356;12.458;2023-03-05T03:39:01;5.15;;;1.48;;
65033;SDS011;51601;51.356;12.458;2023-03-05T03:43:27;6.70;;;1.50;;
65033;SDS011;51601;51.356;12.458;2023-03-05T03:47:51;6.20;;;2.00;;
65033;SDS011;51601;51.356;12.458;2023-03-05T03:52:16;6.20;;;1.83;;
65033;SDS011;51601;51.356;12.458;2023-03-05T03:56:40;15.43;;;2.63;;
65033;SDS011;51601;51.356;12.458;2023-03-05T04:01:04;5.73;;;2.00;;
65033;SDS011;51601;51.356;12.458;2023-03-05T04:05:28;4.55;;;1.52;;
65033;SDS011;51601;51.356;12.458;2023-03-05T04:09:54;6.78;;;1.67;;
65033;SDS011;51601;51.356;12.458;2023-03-05T04:14:17;4.43;;;1.30;;
65033;SDS011;51601;51.356;12.458;2023-03-05T04:18:41;5.28;;;1.30;;
65033;SDS011;51601;51.356;12.458;2023-03-05T04:23:06;5.90;;;1.10;;
65033;SDS011;51601;51.356;12.458;2023-03-05T04:27:32;6.37;;;1.70;;
65033;SDS011;51601;51.356;12.458;2023-03-05T04:31:57;6.38;;;1.73;;
65033;SDS011;51601;51.356;12.458;2023-03-05T04:36:21;8.30;;;1.25;;
65033;SDS011;51601;51.356;12.458;2023-03-05T04:40:45;4.72;;;1.20;;
65033;SDS011;51601;51.356;12.458;2023-03-05T04:45:11;4.30;;;1.37;;
65033;SDS011;51601;51.356;12.458;2023-03-05T04:49:35;6.60;;;1.40;;
65033;SDS011;51601;51.356;12.458;2023-03-05T04:53:59;7.15;;;1.40;;
65033;SDS011;51601;51.356;12.458;2023-03-05T04:58:23;3.30;;;1.20;;
65033;SDS011;51601;51.356;12.458;2023-03-05T05:02:49;4.75;;;1.40;;
65033;SDS011;51601;51.356;12.458;2023-03-05T05:07:13;3.80;;;1.23;;
65033;SDS011;51601;51.356;12.458;2023-03-05T05:11:38;5.27;;;1.10;;
65033;SDS011;51601;51.356;12.458;2023-03-05T05:16:04;3.53;;;1.00;;
65033;SDS011;51601;51.356;12.458;2023-03-05T05:20:30;5.30;;;1.60;;
65033;SDS011;51601;51.356;12.458;2023-03-05T05:24:54;4.35;;;1.20;;
65033;SDS011;51601;51.356;12.458;2023-03-05T05:29:15;5.17;;;1.30;;
65033;SDS011;51601;51.356;12.458;2023-03-05T05:33:39;2.97;;;1.10;;
65033;SDS011;51601;51.356;12.458;2023-03-05T05:38:04;6.32;;;1.17;;
65033;SDS011;51601;51.356;12.458;2023-03-05T05:42:28;5.30;;;1.70;;
65033;SDS011;51601;51.356;12.458;2023-03-05T05:46:52;7.03;;;1.70;;
65033;SDS011;51601;51.356;12.458;2023-03-05T05:51:17;6.95;;;1.88;;
65033;SDS011;51601;51.356;12.458;2023-03-05T05:55:44;5.37;;;1.30;;
65033;SDS011;51601;51.356;12.458;2023-03-05T06:00:09;2.45;;;0.85;;
65033;SDS011;51601;51.356;12.458;2023-03-05T06:04:36;5.72;;;1.30;;
65033;SDS011;51601;51.356;12.458;2023-03-05T06:09:01;3.47;;;1.30;;
65033;SDS011;51601;51.356;12.458;2023-03-05T06:13:27;5.10;;;1.60;;
65033;SDS011;51601;51.356;12.458;2023-03-05T06:17:51;5.20;;;1.00;;
65033;SDS011;51601;51.356;12.458;2023-03-05T06:22:15;1.65;;;0.70;;
65033;SDS011;51601;51.356;12.458;2023-03-05T06:26:39;4.03;;;1.17;;
65033;SDS011;51601;51.356;12.458;2023-03-05T06:31:05;4.05;;;1.00;;
65033;SDS011;51601;51.356;12.458;2023-03-05T06:35:32;4.63;;;1.35;;
65033;SDS011;51601;51.356;12.458;2023-03-05T06:39:56;3.83;;;1.10;;
65033;SDS011;51601;51.356;12.458;2023-03-05T06:44:20;5.97;;;1.40;;
65033;SDS011;51601;51.356;12.458;2023-03-05T06:48:45;3.58;;;1.00;;
65033;SDS011;51601;51.356;12.458;2023-03-05T06:53:11;6.05;;;1.13;;
65033;SDS011;51601;51.356;12.458;2023-03-05T06:57:35;3.63;;;1.10;;
65033;SDS011;51601;51.356;12.458;2023-03-05T07:01:59;4.53;;;1.10;;
65033;SDS011;51601;51.356;12.458;2023-03-05T07:06:24;4.72;;;1.40;;
65033;SDS011;51601;51.356;12.458;2023-03-05T07:10:49;6.97;;;1.40;;
65033;SDS011;51601;51.356;12.458;2023-03-05T07:15:13;5.05;;;1.60;;
65033;SDS011;51601;51.356;12.458;2023-03-05T07:19:37;5.95;;;1.42;;
65033;SDS011;51601;51.356;12.458;2023-03-05T07:24:03;5.03;;;1.77;;
65033;SDS011;51601;51.356;12.458;2023-03-05T07:28:27;3.85;;;1.38;;
65033;SDS011;51601;51.356;12.458;2023-03-05T07:32:51;6.97;;;1.35;;
65033;SDS011;51601;51.356;12.458;2023-03-05T07:37:15;7.80;;;1.50;;
65033;SDS011;51601;51.356;12.458;2023-03-05T07:41:41;4.77;;;1.37;;
65033;SDS011;51601;51.356;12.458;2023-03-05T07:46:05;3.13;;;1.05;;
65033;SDS011;51601;51.356;12.458;2023-03-05T07:50:33;5.15;;;1.10;;
65033;SDS011;51601;51.356;12.458;2023-03-05T07:54:57;5.87;;;1.70;;
65033;SDS011;51601;51.356;12.458;2023-03-05T07:59:23;5.47;;;1.50;;
65033;SDS011;51601;51.356;12.458;2023-03-05T08:03:47;3.42;;;1.08;;
65033;SDS011;51601;51.356;12.458;2023-03-05T08:08:11;3.23;;;1.20;;
65033;SDS011;51601;51.356;12.458;2023-03-05T08:12:35;7.65;;;2.15;;
65033;SDS011;51601;51.356;12.458;2023-03-05T08:17:00;6.07;;;1.80;;
65033;SDS011;51601;51.356;12.458;2023-03-05T08:21:25;4.65;;;1.40;;
65033;SDS011;51601;51.356;12.458;2023-03-05T08:25:51;10.40;;;1.80;;
65033;SDS011;51601;51.356;12.458;2023-03-05T08:30:17;6.05;;;1.90;;
65033;SDS011;51601;51.356;12.458;2023-03-05T08:34:44;6.85;;;1.90;;
65033;SDS011;51601;51.356;12.458;2023-03-05T08:39:09;6.50;;;1.90;;
65033;SDS011;51601;51.356;12.458;2023-03-05T08:43:33;5.05;;;1.50;;
65033;SDS011;51601;51.356;12.458;2023-03-05T08:47:57;8.50;;;2.75;;
65033;SDS011;51601;51.356;12.458;2023-03-05T08:52:23;6.73;;;2.00;;
65033;SDS011;51601;51.356;12.458;2023-03-05T08:56:48;7.97;;;1.70;;
65033;SDS011;51601;51.356;12.458;2023-03-05T09:01:12;5.80;;;2.10;;
65033;SDS011;51601;51.356;12.458;2023-03-05T09:05:36;7.55;;;2.22;;
65033;SDS011;51601;51.356;12.458;2023-03-05T09:10:02;6.63;;;1.80;;
65033;SDS011;51601;51.356;12.458;2023-03-05T09:14:26;5.82;;;1.83;;
65033;SDS011;51601;51.356;12.458;2023-03-05T09:18:51;8.35;;;1.90;;
65033;SDS011;51601;51.356;12.458;2023-03-05T09:23:15;9.50;;;2.17;;
65033;SDS011;51601;51.356;12.458;2023-03-05T09:27:41;6.88;;;2.00;;
65033;SDS011;51601;51.356;12.458;2023-03-05T09:32:06;7.05;;;2.00;;
65033;SDS011;51601;51.356;12.458;2023-03-05T09:36:31;5.70;;;2.07;;
65033;SDS011;51601;51.356;12.458;2023-03-05T09:40:58;5.95;;;1.92;;
65033;SDS011;51601;51.356;12.458;2023-03-05T09:45:31;6.40;;;2.15;;
65033;SDS011;51601;51.356;12.458;2023-03-05T09:50:02;10.10;;;2.50;;
65033;SDS011;51601;51.356;12.458;2023-03-05T09:54:36;8.43;;;2.77;;
65033;SDS011;51601;51.356;12.458;2023-03-05T09:59:03;7.60;;;2.22;;
65033;SDS011;51601;51.356;12.458;2023-03-05T10:03:41;7.53;;;2.35;;
65033;SDS011;51601;51.356;12.458;2023-03-05T10:08:14;7.17;;;2.10;;
65033;SDS011;51601;51.356;12.458;2023-03-05T10:12:44;7.35;;;2.25;;
65033;SDS011;51601;51.356;12.458;2023-03-05T10:22:15;9.67;;;2.77;;
65033;SDS011;51601;51.356;12.458;2023-03-05T10:26:44;6.60;;;2.60;;
65033;SDS011;51601;51.356;12.458;2023-03-05T10:31:23;6.95;;;2.25;;
65033;SDS011;51601;51.356;12.458;2023-03-05T10:36:04;7.88;;;2.50;;
65033;SDS011;51601;51.356;12.458;2023-03-05T10:40:47;7.17;;;2.30;;
65033;SDS011;51601;51.356;12.458;2023-03-05T10:45:16;6.78;;;2.25;;
65033;SDS011;51601;51.356;12.458;2023-03-05T10:49:46;5.40;;;1.40;;
65033;SDS011;51601;51.356;12.458;2023-03-05T10:54:14;5.23;;;2.10;;
65033;SDS011;51601;51.356;12.458;2023-03-05T10:58:47;4.35;;;1.55;;
65033;SDS011;51601;51.356;12.458;2023-03-05T11:03:13;4.63;;;1.88;;
65033;SDS011;51601;51.356;12.458;2023-03-05T11:07:37;4.80;;;1.90;;
65033;SDS011;51601;51.356;12.458;2023-03-05T11:12:03;5.47;;;1.98;;
65033;SDS011;51601;51.356;12.458;2023-03-05T11:16:46;5.80;;;2.08;;
65033;SDS011;51601;51.356;12.458;2023-03-05T11:21:16;6.53;;;2.50;;
65033;SDS011;51601;51.356;12.458;2023-03-05T11:25:55;8.33;;;2.10;;
65033;SDS011;51601;51.356;12.458;2023-03-05T11:30:23;6.00;;;2.15;;
65033;SDS011;51601;51.356;12.458;2023-03-05T11:34:50;5.60;;;2.30;;
65033;SDS011;51601;51.356;12.458;2023-03-05T11:39:16;6.07;;;1.90;;
65033;SDS011;51601;51.356;12.458;2023-03-05T11:43:43;6.90;;;1.88;;
65033;SDS011;51601;51.356;12.458;2023-03-05T11:48:08;6.28;;;2.03;;
65033;SDS011;51601;51.356;12.458;2023-03-05T11:52:40;7.87;;;1.70;;
65033;SDS011;51601;51.356;12.458;2023-03-05T11:57:09;5.85;;;1.90;;
65033;SDS011;51601;51.356;12.458;2023-03-05T12:01:38;4.80;;;1.65;;
65033;SDS011;51601;51.356;12.458;2023-03-05T12:06:12;6.25;;;2.05;;
65033;SDS011;51601;51.356;12.458;2023-03-05T12:10:41;7.63;;;2.20;;
65033;SDS011;51601;51.356;12.458;2023-03-05T12:20:10;4.13;;;1.38;;
65033;SDS011;51601;51.356;12.458;2023-03-05T12:24:40;4.57;;;1.77;;
65033;SDS011;51601;51.356;12.458;2023-03-05T12:29:11;4.20;;;1.38;;
65033;SDS011;51601;51.356;12.458;2023-03-05T12:33:50;4.90;;;1.55;;
65033;SDS011;51601;51.356;12.458;2023-03-05T12:38:27;6.63;;;2.07;;
65033;SDS011;51601;51.356;12.458;2023-03-05T12:42:56;6.25;;;2.05;;
65033;SDS011;51601;51.356;12.458;2023-03-05T12:47:23;4.97;;;2.05;;
65033;SDS011;51601;51.356;12.458;2023-03-05T12:51:48;5.85;;;1.67;;
65033;SDS011;51601;51.356;12.458;2023-03-05T12:56:16;5.87;;;1.90;;
65033;SDS011;51601;51.356;12.458;2023-03-05T13:00:46;4.97;;;1.40;;
65033;SDS011;51601;51.356;12.458;2023-03-05T13:05:18;7.07;;;1.75;;
65033;SDS011;51601;51.356;12.458;2023-03-05T13:09:52;3.70;;;1.30;;
65033;SDS011;51601;51.356;12.458;2023-03-05T13:14:30;5.93;;;1.52;;
65033;SDS011;51601;51.356;12.458;2023-03-05T13:19:00;5.15;;;1.55;;
65033;SDS011;51601;51.356;12.458;2023-03-05T13:23:26;4.73;;;1.67;;
65033;SDS011;51601;51.356;12.458;2023-03-05T13:27:50;4.13;;;1.40;;
65033;SDS011;51601;51.356;12.458;2023-03-05T13:32:18;4.25;;;1.48;;
65033;SDS011;51601;51.356;12.458;2023-03-05T13:36:49;5.72;;;2.08;;
65033;SDS011;51601;51.356;12.458;2023-03-05T13:41:20;6.27;;;2.40;;
65033;SDS011;51601;51.356;12.458;2023-03-05T13:45:51;6.38;;;2.53;;
65033;SDS011;51601;51.356;12.458;2023-03-05T13:50:20;6.95;;;2.58;;
65033;SDS011;51601;51.356;12.458;2023-03-05T13:54:46;6.33;;;2.70;;
65033;SDS011;51601;51.356;12.458;2023-03-05T13:59:17;7.05;;;2.50;;
65033;SDS011;51601;51.356;12.458;2023-03-05T14:03:42;6.53;;;2.47;;
65033;SDS011;51601;51.356;12.458;2023-03-05T14:08:12;6.10;;;2.00;;
65033;SDS011;51601;51.356;12.458;2023-03-05T14:12:42;5.75;;;2.00;;
65033;SDS011;51601;51.356;12.458;2023-03-05T14:17:20;6.75;;;2.00;;
65033;SDS011;51601;51.356;12.458;2023-03-05T14:21:54;5.72;;;2.08;;
65033;SDS011;51601;51.356;12.458;2023-03-05T14:26:26;6.87;;;2.10;;
65033;SDS011;51601;51.356;12.458;2023-03-05T14:30:53;4.35;;;1.33;;
65033;SDS011;51601;51.356;12.458;2023-03-05T14:35:20;4.47;;;1.50;;
65033;SDS011;51601;51.356;12.458;2023-03-05T14:39:48;5.53;;;1.80;;
65033;SDS011;51601;51.356;12.458;2023-03-05T14:44:15;4.05;;;1.42;;
65033;SDS011;51601;51.356;12.458;2023-03-05T14:48:40;4.22;;;1.52;;
65033;SDS011;51601;51.356;12.458;2023-03-05T14:53:07;6.70;;;1.80;;
65033;SDS011;51601;51.356;12.458;2023-03-05T14:57:33;4.45;;;1.70;;
65033;SDS011;51601;51.356;12.458;2023-03-05T15:01:56;5.72;;;1.52;;
65033;SDS011;51601;51.356;12.458;2023-03-05T15:06:22;5.60;;;1.73;;
65033;SDS011;51601;51.356;12.458;2023-03-05T15:10:53;4.73;;;1.60;;
65033;SDS011;51601;51.356;12.458;2023-03-05T15:15:18;5.45;;;1.52;;
65033;SDS011;51601;51.356;12.458;2023-03-05T15:19:43;3.72;;;1.35;;
65033;SDS011;51601;51.356;12.458;2023-03-05T15:24:08;8.07;;;1.80;;
65033;SDS011;51601;51.356;12.458;2023-03-05T15:28:35;4.68;;;1.58;;
65033;SDS011;51601;51.356;12.458;2023-03-05T15:33:01;5.45;;;1.70;;
65033;SDS011;51601;51.356;12.458;2023-03-05T15:37:27;6.40;;;1.77;;
65033;SDS011;51601;51.356;12.458;2023-03-05T15:41:51;7.93;;;1.70;;
65033;SDS011;51601;51.356;12.458;2023-03-05T15:46:16;4.53;;;1.50;;
65033;SDS011;51601;51.356;12.458;2023-03-05T15:50:41;6.85;;;1.75;;
65033;SDS011;51601;51.356;12.458;2023-03-05T15:55:07;6.63;;;1.70;;
65033;SDS011;51601;51.356;12.458;2023-03-05T15:59:32;7.97;;;1.90;;
65033;SDS011;51601;51.356;12.458;2023-03-05T16:03:58;7.80;;;2.03;;
65033;SDS011;51601;51.356;12.458;2023-03-05T16:08:22;6.93;;;1.80;;
65033;SDS011;51601;51.356;12.458;2023-03-05T16:12:46;5.50;;;1.80;;
65033;SDS011;51601;51.356;12.458;2023-03-05T16:17:12;5.80;;;1.90;;
65033;SDS011;51601;51.356;12.458;2023-03-05T16:21:39;6.33;;;1.87;;
65033;SDS011;51601;51.356;12.458;2023-03-05T16:26:04;7.65;;;1.65;;
65033;SDS011;51601;51.356;12.458;2023-03-05T16:30:30;5.88;;;1.80;;
65033;SDS011;51601;51.356;12.458;2023-03-05T16:34:54;6.95;;;1.95;;
65033;SDS011;51601;51.356;12.458;2023-03-05T16:39:21;5.70;;;1.87;;
65033;SDS011;51601;51.356;12.458;2023-03-05T16:43:45;5.22;;;1.90;;
65033;SDS011;51601;51.356;12.458;2023-03-05T16:48:09;5.28;;;1.80;;
65033;SDS011;51601;51.356;12.458;2023-03-05T16:52:33;8.40;;;2.13;;
65033;SDS011;51601;51.356;12.458;2023-03-05T16:56:59;6.72;;;1.92;;
65033;SDS011;51601;51.356;12.458;2023-03-05T17:01:23;5.95;;;2.20;;
65033;SDS011;51601;51.356;12.458;2023-03-05T17:05:48;6.90;;;2.70;;
65033;SDS011;51601;51.356;12.458;2023-03-05T17:10:12;6.13;;;2.03;;
65033;SDS011;51601;51.356;12.458;2023-03-05T17:14:37;5.82;;;2.10;;
65033;SDS011;51601;51.356;12.458;2023-03-05T17:18:55;8.27;;;2.28;;
65033;SDS011;51601;51.356;12.458;2023-03-05T17:23:13;7.90;;;2.13;;
65033;SDS011;51601;51.356;12.458;2023-03-05T17:27:31;7.25;;;2.22;;
65033;SDS011;51601;51.356;12.458;2023-03-05T17:31:53;9.82;;;2.72;;
65033;SDS011;51601;51.356;12.458;2023-03-05T17:36:14;8.77;;;2.70;;
65033;SDS011;51601;51.356;12.458;2023-03-05T17:40:34;9.63;;;3.30;;
65033;SDS011;51601;51.356;12.458;2023-03-05T17:44:52;9.73;;;2.80;;
65033;SDS011;51601;51.356;12.458;2023-03-05T17:49:12;7.60;;;2.67;;
65033;SDS011;51601;51.356;12.458;2023-03-05T17:53:32;7.82;;;2.65;;
65033;SDS011;51601;51.356;12.458;2023-03-05T17:57:50;8.65;;;3.10;;
65033;SDS011;51601;51.356;12.458;2023-03-05T18:02:08;8.57;;;3.00;;
65033;SDS011;51601;51.356;12.458;2023-03-05T18:06:27;8.83;;;2.87;;
65033;SDS011;51601;51.356;12.458;2023-03-05T18:10:47;7.88;;;3.15;;
65033;SDS011;51601;51.356;12.458;2023-03-05T18:15:06;8.07;;;2.83;;
65033;SDS011;51601;51.356;12.458;2023-03-05T18:19:26;9.70;;;3.00;;
65033;SDS011;51601;51.356;12.458;2023-03-05T18:23:45;7.97;;;3.30;;
65033;SDS011;51601;51.356;12.458;2023-03-05T18:28:06;7.45;;;2.83;;
65033;SDS011;51601;51.356;12.458;2023-03-05T18:32:26;7.90;;;3.40;;
65033;SDS011;51601;51.356;12.458;2023-03-05T18:36:47;8.45;;;3.33;;
65033;SDS011;51601;51.356;12.458;2023-03-05T18:41:07;7.70;;;3.10;;
65033;SDS011;51601;51.356;12.458;2023-03-05T18:45:27;7.18;;;2.50;;
65033;SDS011;51601;51.356;12.458;2023-03-05T18:49:45;6.30;;;2.67;;
65033;SDS011;51601;51.356;12.458;2023-03-05T18:54:03;7.68;;;2.33;;
65033;SDS011;51601;51.356;12.458;2023-03-05T18:58:22;6.88;;;2.50;;
65033;SDS011;51601;51.356;12.458;2023-03-05T19:02:42;7.90;;;3.73;;
65033;SDS011;51601;51.356;12.458;2023-03-05T19:07:00;7.93;;;2.83;;
65033;SDS011;51601;51.356;12.458;2023-03-05T19:11:19;8.85;;;3.08;;
65033;SDS011;51601;51.356;12.458;2023-03-05T19:15:40;7.23;;;3.30;;
65033;SDS011;51601;51.356;12.458;2023-03-05T19:20:00;8.02;;;3.53;;
65033;SDS011;51601;51.356;12.458;2023-03-05T19:24:22;10.45;;;4.60;;
65033;SDS011;51601;51.356;12.458;2023-03-05T19:28:42;8.18;;;3.40;;
65033;SDS011;51601;51.356;12.458;2023-03-05T19:33:02;8.40;;;3.20;;
65033;SDS011;51601;51.356;12.458;2023-03-05T19:37:22;9.38;;;3.45;;
65033;SDS011;51601;51.356;12.458;2023-03-05T19:41:40;8.25;;;3.40;;
65033;SDS011;51601;51.356;12.458;2023-03-05T19:46:01;8.27;;;3.30;;
65033;SDS011;51601;51.356;12.458;2023-03-05T19:50:23;9.32;;;3.10;;
65033;SDS011;51601;51.356;12.458;2023-03-05T19:54:43;8.25;;;3.28;;
65033;SDS011;51601;51.356;12.458;2023-03-05T19:59:01;11.60;;;3.63;;
65033;SDS011;51601;51.356;12.458;2023-03-05T20:03:19;8.30;;;3.58;;
65033;SDS011;51601;51.356;12.458;2023-03-05T20:07:39;7.57;;;2.85;;
65033;SDS011;51601;51.356;12.458;2023-03-05T20:11:58;7.45;;;3.03;;
65033;SDS011;51601;51.356;12.458;2023-03-05T20:16:20;6.17;;;2.43;;
65033;SDS011;51601;51.356;12.458;2023-03-05T20:20:41;6.97;;;2.63;;
65033;SDS011;51601;51.356;12.458;2023-03-05T20:25:00;5.78;;;2.00;;
65033;SDS011;51601;51.356;12.458;2023-03-05T20:29:20;7.17;;;2.60;;
65033;SDS011;51601;51.356;12.458;2023-03-05T20:33:38;6.20;;;1.92;;
65033;SDS011;51601;51.356;12.458;2023-03-05T20:37:56;6.53;;;2.50;;
65033;SDS011;51601;51.356;12.458;2023-03-05T20:42:37;8.57;;;2.60;;
65033;SDS011;51601;51.356;12.458;2023-03-05T20:46:57;7.43;;;2.65;;
65033;SDS011;51601;51.356;12.458;2023-03-05T20:51:28;7.25;;;2.80;;
65033;SDS011;51601;51.356;12.458;2023-03-05T20:55:48;7.13;;;2.63;;
65033;SDS011;51601;51.356;12.458;2023-03-05T21:00:09;7.33;;;2.87;;
65033;SDS011;51601;51.356;12.458;2023-03-05T21:04:30;7.68;;;2.40;;
65033;SDS011;51601;51.356;12.458;2023-03-05T21:08:48;6.80;;;2.30;;
65033;SDS011;51601;51.356;12.458;2023-03-05T21:13:06;7.77;;;2.67;;
65033;SDS011;51601;51.356;12.458;2023-03-05T21:17:26;8.43;;;2.83;;
65033;SDS011;51601;51.356;12.458;2023-03-05T21:21:46;9.52;;;2.90;;
65033;SDS011;51601;51.356;12.458;2023-03-05T21:26:04;7.63;;;2.97;;
65033;SDS011;51601;51.356;12.458;2023-03-05T21:30:22;6.93;;;2.70;;
65033;SDS011;51601;51.356;12.458;2023-03-05T21:34:48;6.38;;;2.58;;
65033;SDS011;51601;51.356;12.458;2023-03-05T21:39:08;6.68;;;2.80;;
65033;SDS011;51601;51.356;12.458;2023-03-05T21:43:28;7.50;;;3.10;;
65033;SDS011;51601;51.356;12.458;2023-03-05T21:47:47;6.32;;;2.40;;
65033;SDS011;51601;51.356;12.458;2023-03-05T21:52:10;6.20;;;2.25;;
65033;SDS011;51601;51.356;12.458;2023-03-05T21:56:28;8.30;;;2.53;;
65033;SDS011;51601;51.356;12.458;2023-03-05T22:00:47;9.40;;;2.92;;
65033;SDS011;51601;51.356;12.458;2023-03-05T22:05:05;8.77;;;2.97;;
65033;SDS011;51601;51.356;12.458;2023-03-05T22:09:31;7.13;;;2.70;;
65033;SDS011;51601;51.356;12.458;2023-03-05T22:13:50;8.00;;;2.80;;
65033;SDS011;51601;51.356;12.458;2023-03-05T22:18:08;9.10;;;3.00;;
65033;SDS011;51601;51.356;12.458;2023-03-05T22:22:26;6.47;;;2.72;;
65033;SDS011;51601;51.356;12.458;2023-03-05T22:26:46;7.27;;;2.77;;
65033;SDS011;51601;51.356;12.458;2023-03-05T22:31:05;6.95;;;2.72;;
65033;SDS011;51601;51.356;12.458;2023-03-05T22:35:23;7.28;;;2.70;;
65033;SDS011;51601;51.356;12.458;2023-03-05T22:39:41;6.93;;;2.53;;
65033;SDS011;51601;51.356;12.458;2023-03-05T22:44:01;7.50;;;2.60;;
65033;SDS011;51601;51.356;12.458;2023-03-05T22:48:21;8.63;;;3.30;;
65033;SDS011;51601;51.356;12.458;2023-03-05T22:52:39;7.40;;;3.23;;
65033;SDS011;51601;51.356;12.458;2023-03-05T22:56:57;8.43;;;3.15;;
65033;SDS011;51601;51.356;12.458;2023-03-05T23:01:17;8.32;;;3.10;;
65033;SDS011;51601;51.356;12.458;2023-03-05T23:05:37;8.35;;;3.63;;
65033;SDS011;51601;51.356;12.458;2023-03-05T23:09:59;9.70;;;3.77;;
65033;SDS011;51601;51.356;12.458;2023-03-05T23:14:18;8.90;;;3.78;;
65033;SDS011;51601;51.356;12.458;2023-03-05T23:18:41;9.02;;;3.50;;
65033;SDS011;51601;51.356;12.458;2023-03-05T23:23:00;6.90;;;2.83;;
65033;SDS011;51601;51.356;12.458;2023-03-05T23:27:18;9.63;;;3.85;;
65033;SDS011;51601;51.356;12.458;2023-03-05T23:31:36;9.68;;;3.95;;
65033;SDS011;51601;51.356;12.458;2023-03-05T23:35:57;9.33;;;3.97;;
65033;SDS011;51601;51.356;12.458;2023-03-05T23:40:17;8.20;;;2.85;;
65033;SDS011;51601;51.356;12.458;2023-03-05T23:44:37;10.43;;;4.15;;
65033;SDS011;51601;51.356;12.458;2023-03-05T23:48:55;10.48;;;4.32;;
65033;SDS011;51601;51.356;12.458;2023-03-05T23:53:15;10.23;;;4.30;;
65033;SDS011;51601;51.356;12.458;2023-03-05T23:57:37;12.10;;;4.57;;
